sensor_id;sensor_type;location;lat;lon;timestamp;P1;durP1;ratioP1;P2;durP2;ratioP2
68212;SDS011;55035;47.792;8.724;2022-10-19T00:00:08;14.55;;;5.10;;
68212;SDS011;55035;47.792;8.724;2022-10-19T00:02:36;11.77;;;5.20;;
68212;SDS011;55035;47.792;8.724;2022-10-19T00:05:08;15.57;;;6.10;;
68212;SDS011;55035;47.792;8.724;2022-10-19T00:07:35;13.88;;;5.95;;
68212;SDS011;55035;47.792;8.724;2022-10-19T00:10:02;14.80;;;6.75;;
68212;SDS011;55035;47.792;8.724;2022-10-19T00:12:29;17.65;;;6.20;;
68212;SDS011;55035;47.792;8.724;2022-10-19T00:14:56;12.88;;;6.40;;
68212;SDS011;55035;47.792;8.724;2022-10-19T00:17:24;12.95;;;5.53;;
68212;SDS011;55035;47.792;8.724;2022-10-19T00:19:51;13.52;;;6.50;;
68212;SDS011;55035;47.792;8.724;2022-10-19T00:22:18;12.48;;;6.03;;
68212;SDS011;55035;47.792;8.724;2022-10-19T00:24:45;15.52;;;5.90;;
68212;SDS011;55035;47.792;8.724;2022-10-19T00:27:12;13.18;;;5.78;;
68212;SDS011;55035;47.792;8.724;2022-10-19T00:29:41;11.98;;;6.57;;
68212;SDS011;55035;47.792;8.724;2022-10-19T00:32:08;15.48;;;7.10;;
68212;SDS011;55035;47.792;8.724;2022-10-19T00:34:36;14.98;;;6.60;;
68212;SDS011;55035;47.792;8.724;2022-10-19T00:37:03;13.95;;;6.03;;
68212;SDS011;55035;47.792;8.724;2022-10-19T00:39:30;12.50;;;6.28;;
68212;SDS011;55035;47.792;8.724;2022-10-19T00:41:57;17.60;;;5.85;;
68212;SDS011;55035;47.792;8.724;2022-10-19T00:47:09;14.40;;;6.40;;
68212;SDS011;55035;47.792;8.724;2022-10-19T00:49:38;15.63;;;7.25;;
68212;SDS011;55035;47.792;8.724;2022-10-19T00:52:07;14.43;;;7.20;;
68212;SDS011;55035;47.792;8.724;2022-10-19T00:54:35;15.07;;;7.78;;
68212;SDS011;55035;47.792;8.724;2022-10-19T00:57:03;17.27;;;7.70;;
68212;SDS011;55035;47.792;8.724;2022-10-19T00:59:30;15.13;;;7.50;;
68212;SDS011;55035;47.792;8.724;2022-10-19T01:01:57;19.15;;;8.35;;
68212;SDS011;55035;47.792;8.724;2022-10-19T01:04:25;17.38;;;8.43;;
68212;SDS011;55035;47.792;8.724;2022-10-19T01:06:54;18.10;;;8.30;;
68212;SDS011;55035;47.792;8.724;2022-10-19T01:09:22;17.88;;;8.45;;
68212;SDS011;55035;47.792;8.724;2022-10-19T01:11:50;18.33;;;8.43;;
68212;SDS011;55035;47.792;8.724;2022-10-19T01:14:24;19.35;;;8.50;;
68212;SDS011;55035;47.792;8.724;2022-10-19T01:16:52;16.23;;;7.93;;
68212;SDS011;55035;47.792;8.724;2022-10-19T01:19:27;16.33;;;7.95;;
68212;SDS011;55035;47.792;8.724;2022-10-19T01:22:03;18.05;;;8.30;;
68212;SDS011;55035;47.792;8.724;2022-10-19T01:24:40;16.08;;;7.28;;
68212;SDS011;55035;47.792;8.724;2022-10-19T01:27:20;14.93;;;7.40;;
68212;SDS011;55035;47.792;8.724;2022-10-19T01:29:58;14.50;;;7.80;;
68212;SDS011;55035;47.792;8.724;2022-10-19T01:32:27;16.13;;;7.07;;
68212;SDS011;55035;47.792;8.724;2022-10-19T01:35:00;16.33;;;7.80;;
68212;SDS011;55035;47.792;8.724;2022-10-19T01:37:32;16.80;;;7.93;;
68212;SDS011;55035;47.792;8.724;2022-10-19T01:40:02;17.30;;;6.80;;
68212;SDS011;55035;47.792;8.724;2022-10-19T01:42:31;15.05;;;7.18;;
68212;SDS011;55035;47.792;8.724;2022-10-19T01:45:03;15.20;;;7.00;;
68212;SDS011;55035;47.792;8.724;2022-10-19T01:47:32;15.80;;;7.25;;
68212;SDS011;55035;47.792;8.724;2022-10-19T01:50:00;13.77;;;6.70;;
68212;SDS011;55035;47.792;8.724;2022-10-19T01:52:28;13.25;;;6.65;;
68212;SDS011;55035;47.792;8.724;2022-10-19T01:54:57;12.23;;;6.28;;
68212;SDS011;55035;47.792;8.724;2022-10-19T01:57:25;17.80;;;6.65;;
68212;SDS011;55035;47.792;8.724;2022-10-19T01:59:53;14.02;;;6.13;;
68212;SDS011;55035;47.792;8.724;2022-10-19T02:02:23;13.98;;;6.53;;
68212;SDS011;55035;47.792;8.724;2022-10-19T02:04:51;14.38;;;6.53;;
68212;SDS011;55035;47.792;8.724;2022-10-19T02:07:19;16.42;;;6.47;;
68212;SDS011;55035;47.792;8.724;2022-10-19T02:09:48;14.82;;;6.30;;
68212;SDS011;55035;47.792;8.724;2022-10-19T02:12:15;15.63;;;6.20;;
68212;SDS011;55035;47.792;8.724;2022-10-19T02:14:43;13.43;;;5.95;;
68212;SDS011;55035;47.792;8.724;2022-10-19T02:17:12;14.63;;;6.50;;
68212;SDS011;55035;47.792;8.724;2022-10-19T02:19:40;13.32;;;5.68;;
68212;SDS011;55035;47.792;8.724;2022-10-19T02:22:08;12.63;;;5.78;;
68212;SDS011;55035;47.792;8.724;2022-10-19T02:24:35;12.55;;;5.95;;
68212;SDS011;55035;47.792;8.724;2022-10-19T02:27:03;13.15;;;6.40;;
68212;SDS011;55035;47.792;8.724;2022-10-19T02:29:31;13.70;;;6.18;;
68212;SDS011;55035;47.792;8.724;2022-10-19T02:31:58;12.43;;;5.75;;
68212;SDS011;55035;47.792;8.724;2022-10-19T02:34:25;15.65;;;6.60;;
68212;SDS011;55035;47.792;8.724;2022-10-19T02:37:19;12.45;;;6.00;;
68212;SDS011;55035;47.792;8.724;2022-10-19T02:39:46;12.27;;;5.82;;
68212;SDS011;55035;47.792;8.724;2022-10-19T02:42:13;12.52;;;5.55;;
68212;SDS011;55035;47.792;8.724;2022-10-19T02:44:42;10.68;;;5.22;;
68212;SDS011;55035;47.792;8.724;2022-10-19T02:47:12;11.23;;;5.20;;
68212;SDS011;55035;47.792;8.724;2022-10-19T02:49:40;10.63;;;5.35;;
68212;SDS011;55035;47.792;8.724;2022-10-19T02:52:09;10.77;;;5.57;;
68212;SDS011;55035;47.792;8.724;2022-10-19T02:54:38;10.40;;;5.15;;
68212;SDS011;55035;47.792;8.724;2022-10-19T02:57:13;13.13;;;6.03;;
68212;SDS011;55035;47.792;8.724;2022-10-19T02:59:40;15.27;;;6.78;;
68212;SDS011;55035;47.792;8.724;2022-10-19T03:02:07;17.60;;;8.57;;
68212;SDS011;55035;47.792;8.724;2022-10-19T03:04:33;21.13;;;10.73;;
68212;SDS011;55035;47.792;8.724;2022-10-19T03:07:01;28.45;;;12.82;;
68212;SDS011;55035;47.792;8.724;2022-10-19T03:09:27;23.88;;;10.77;;
68212;SDS011;55035;47.792;8.724;2022-10-19T03:11:56;24.10;;;9.60;;
68212;SDS011;55035;47.792;8.724;2022-10-19T03:14:23;20.58;;;9.50;;
68212;SDS011;55035;47.792;8.724;2022-10-19T03:16:50;17.85;;;8.18;;
68212;SDS011;55035;47.792;8.724;2022-10-19T03:19:17;17.67;;;8.13;;
68212;SDS011;55035;47.792;8.724;2022-10-19T03:21:43;17.95;;;8.73;;
68212;SDS011;55035;47.792;8.724;2022-10-19T03:24:10;17.55;;;8.55;;
68212;SDS011;55035;47.792;8.724;2022-10-19T03:26:37;21.70;;;9.48;;
68212;SDS011;55035;47.792;8.724;2022-10-19T03:29:06;22.85;;;10.85;;
68212;SDS011;55035;47.792;8.724;2022-10-19T03:31:33;25.40;;;11.93;;
68212;SDS011;55035;47.792;8.724;2022-10-19T03:33:59;28.23;;;12.45;;
68212;SDS011;55035;47.792;8.724;2022-10-19T03:36:27;29.73;;;12.85;;
68212;SDS011;55035;47.792;8.724;2022-10-19T03:38:55;26.08;;;12.82;;
68212;SDS011;55035;47.792;8.724;2022-10-19T03:41:23;29.92;;;12.82;;
68212;SDS011;55035;47.792;8.724;2022-10-19T03:43:50;31.40;;;12.35;;
68212;SDS011;55035;47.792;8.724;2022-10-19T03:46:22;24.35;;;11.32;;
68212;SDS011;55035;47.792;8.724;2022-10-19T03:48:48;26.98;;;11.93;;
68212;SDS011;55035;47.792;8.724;2022-10-19T03:51:16;25.30;;;11.68;;
68212;SDS011;55035;47.792;8.724;2022-10-19T03:53:43;26.65;;;12.50;;
68212;SDS011;55035;47.792;8.724;2022-10-19T03:56:11;23.50;;;11.02;;
68212;SDS011;55035;47.792;8.724;2022-10-19T03:58:39;20.60;;;10.43;;
68212;SDS011;55035;47.792;8.724;2022-10-19T04:01:07;24.15;;;10.50;;
68212;SDS011;55035;47.792;8.724;2022-10-19T04:03:36;19.65;;;9.95;;
68212;SDS011;55035;47.792;8.724;2022-10-19T04:06:03;18.35;;;8.77;;
68212;SDS011;55035;47.792;8.724;2022-10-19T04:08:30;17.60;;;8.68;;
68212;SDS011;55035;47.792;8.724;2022-10-19T04:10:57;22.40;;;10.23;;
68212;SDS011;55035;47.792;8.724;2022-10-19T04:13:25;23.85;;;10.63;;
68212;SDS011;55035;47.792;8.724;2022-10-19T04:15:52;16.65;;;8.32;;
68212;SDS011;55035;47.792;8.724;2022-10-19T04:18:19;17.35;;;8.73;;
68212;SDS011;55035;47.792;8.724;2022-10-19T04:20:47;19.58;;;8.65;;
68212;SDS011;55035;47.792;8.724;2022-10-19T04:23:14;19.27;;;9.05;;
68212;SDS011;55035;47.792;8.724;2022-10-19T04:25:41;19.85;;;9.05;;
68212;SDS011;55035;47.792;8.724;2022-10-19T04:28:07;17.88;;;8.63;;
68212;SDS011;55035;47.792;8.724;2022-10-19T04:30:34;24.83;;;9.38;;
68212;SDS011;55035;47.792;8.724;2022-10-19T04:33:01;21.15;;;9.30;;
68212;SDS011;55035;47.792;8.724;2022-10-19T04:35:28;20.83;;;9.70;;
68212;SDS011;55035;47.792;8.724;2022-10-19T04:37:56;22.58;;;9.75;;
68212;SDS011;55035;47.792;8.724;2022-10-19T04:40:24;18.52;;;8.75;;
68212;SDS011;55035;47.792;8.724;2022-10-19T04:42:51;18.30;;;8.35;;
68212;SDS011;55035;47.792;8.724;2022-10-19T04:45:17;18.13;;;9.23;;
68212;SDS011;55035;47.792;8.724;2022-10-19T04:47:44;21.85;;;9.23;;
68212;SDS011;55035;47.792;8.724;2022-10-19T04:50:11;17.27;;;8.55;;
68212;SDS011;55035;47.792;8.724;2022-10-19T04:52:38;17.65;;;9.05;;
68212;SDS011;55035;47.792;8.724;2022-10-19T04:55:06;19.02;;;8.52;;
68212;SDS011;55035;47.792;8.724;2022-10-19T04:57:34;18.65;;;8.25;;
68212;SDS011;55035;47.792;8.724;2022-10-19T05:00:01;18.25;;;8.18;;
68212;SDS011;55035;47.792;8.724;2022-10-19T05:02:27;16.17;;;7.95;;
68212;SDS011;55035;47.792;8.724;2022-10-19T05:04:55;18.25;;;8.20;;
68212;SDS011;55035;47.792;8.724;2022-10-19T05:07:22;15.68;;;7.57;;
68212;SDS011;55035;47.792;8.724;2022-10-19T05:09:49;15.80;;;7.50;;
68212;SDS011;55035;47.792;8.724;2022-10-19T05:12:17;16.30;;;7.68;;
68212;SDS011;55035;47.792;8.724;2022-10-19T05:14:44;15.07;;;7.43;;
68212;SDS011;55035;47.792;8.724;2022-10-19T05:17:11;16.95;;;7.95;;
68212;SDS011;55035;47.792;8.724;2022-10-19T05:19:38;18.85;;;7.88;;
68212;SDS011;55035;47.792;8.724;2022-10-19T05:22:05;17.38;;;7.25;;
68212;SDS011;55035;47.792;8.724;2022-10-19T05:24:32;16.48;;;7.93;;
68212;SDS011;55035;47.792;8.724;2022-10-19T05:26:59;18.20;;;8.50;;
68212;SDS011;55035;47.792;8.724;2022-10-19T05:29:27;17.50;;;7.65;;
68212;SDS011;55035;47.792;8.724;2022-10-19T05:31:54;19.83;;;10.50;;
68212;SDS011;55035;47.792;8.724;2022-10-19T05:34:21;19.23;;;8.20;;
68212;SDS011;55035;47.792;8.724;2022-10-19T05:36:48;17.65;;;8.43;;
68212;SDS011;55035;47.792;8.724;2022-10-19T05:39:15;18.48;;;8.63;;
68212;SDS011;55035;47.792;8.724;2022-10-19T05:41:45;18.50;;;9.20;;
68212;SDS011;55035;47.792;8.724;2022-10-19T05:44:13;17.60;;;8.23;;
68212;SDS011;55035;47.792;8.724;2022-10-19T05:46:42;17.80;;;8.60;;
68212;SDS011;55035;47.792;8.724;2022-10-19T05:49:09;18.27;;;8.88;;
68212;SDS011;55035;47.792;8.724;2022-10-19T05:51:36;19.42;;;8.70;;
68212;SDS011;55035;47.792;8.724;2022-10-19T05:54:03;22.73;;;9.00;;
68212;SDS011;55035;47.792;8.724;2022-10-19T05:56:30;18.30;;;8.13;;
68212;SDS011;55035;47.792;8.724;2022-10-19T05:58:59;20.30;;;8.90;;
68212;SDS011;55035;47.792;8.724;2022-10-19T06:01:27;19.02;;;9.10;;
68212;SDS011;55035;47.792;8.724;2022-10-19T06:03:56;21.15;;;10.15;;
68212;SDS011;55035;47.792;8.724;2022-10-19T06:06:23;20.17;;;9.27;;
68212;SDS011;55035;47.792;8.724;2022-10-19T06:08:50;19.15;;;9.18;;
68212;SDS011;55035;47.792;8.724;2022-10-19T06:11:18;18.80;;;9.00;;
68212;SDS011;55035;47.792;8.724;2022-10-19T06:13:45;18.52;;;9.27;;
68212;SDS011;55035;47.792;8.724;2022-10-19T06:16:15;21.35;;;9.07;;
68212;SDS011;55035;47.792;8.724;2022-10-19T06:18:43;19.50;;;8.90;;
68212;SDS011;55035;47.792;8.724;2022-10-19T06:21:12;17.30;;;8.60;;
68212;SDS011;55035;47.792;8.724;2022-10-19T06:23:44;21.67;;;10.13;;
68212;SDS011;55035;47.792;8.724;2022-10-19T06:26:11;22.02;;;10.63;;
68212;SDS011;55035;47.792;8.724;2022-10-19T06:28:39;19.38;;;9.70;;
68212;SDS011;55035;47.792;8.724;2022-10-19T06:31:06;24.10;;;12.43;;
68212;SDS011;55035;47.792;8.724;2022-10-19T06:33:33;23.88;;;11.75;;
68212;SDS011;55035;47.792;8.724;2022-10-19T06:36:06;23.98;;;12.35;;
68212;SDS011;55035;47.792;8.724;2022-10-19T06:38:34;25.08;;;11.85;;
68212;SDS011;55035;47.792;8.724;2022-10-19T06:41:01;24.73;;;11.82;;
68212;SDS011;55035;47.792;8.724;2022-10-19T06:43:28;23.07;;;11.40;;
68212;SDS011;55035;47.792;8.724;2022-10-19T06:45:56;23.40;;;10.52;;
68212;SDS011;55035;47.792;8.724;2022-10-19T06:48:22;24.48;;;10.10;;
68212;SDS011;55035;47.792;8.724;2022-10-19T06:51:03;20.88;;;9.40;;
68212;SDS011;55035;47.792;8.724;2022-10-19T06:53:30;24.10;;;10.30;;
68212;SDS011;55035;47.792;8.724;2022-10-19T06:56:00;22.20;;;10.00;;
68212;SDS011;55035;47.792;8.724;2022-10-19T06:58:29;23.55;;;9.75;;
68212;SDS011;55035;47.792;8.724;2022-10-19T07:00:57;21.20;;;10.27;;
68212;SDS011;55035;47.792;8.724;2022-10-19T07:03:25;21.45;;;9.00;;
68212;SDS011;55035;47.792;8.724;2022-10-19T07:05:52;22.02;;;9.35;;
68212;SDS011;55035;47.792;8.724;2022-10-19T07:08:19;23.00;;;10.53;;
68212;SDS011;55035;47.792;8.724;2022-10-19T07:10:48;20.63;;;9.57;;
68212;SDS011;55035;47.792;8.724;2022-10-19T07:13:16;21.30;;;9.75;;
68212;SDS011;55035;47.792;8.724;2022-10-19T07:15:43;19.95;;;9.98;;
68212;SDS011;55035;47.792;8.724;2022-10-19T07:18:11;19.75;;;9.23;;
68212;SDS011;55035;47.792;8.724;2022-10-19T07:20:37;17.63;;;8.20;;
68212;SDS011;55035;47.792;8.724;2022-10-19T07:23:06;18.52;;;8.40;;
68212;SDS011;55035;47.792;8.724;2022-10-19T07:25:34;16.80;;;7.65;;
68212;SDS011;55035;47.792;8.724;2022-10-19T07:28:01;18.17;;;8.35;;
68212;SDS011;55035;47.792;8.724;2022-10-19T07:30:31;18.45;;;8.88;;
68212;SDS011;55035;47.792;8.724;2022-10-19T07:32:58;16.47;;;8.37;;
68212;SDS011;55035;47.792;8.724;2022-10-19T07:35:25;17.77;;;8.10;;
68212;SDS011;55035;47.792;8.724;2022-10-19T07:37:52;18.30;;;8.70;;
68212;SDS011;55035;47.792;8.724;2022-10-19T07:40:19;18.98;;;9.13;;
68212;SDS011;55035;47.792;8.724;2022-10-19T07:42:52;19.52;;;8.63;;
68212;SDS011;55035;47.792;8.724;2022-10-19T07:45:19;18.17;;;7.87;;
68212;SDS011;55035;47.792;8.724;2022-10-19T07:47:47;18.13;;;7.90;;
68212;SDS011;55035;47.792;8.724;2022-10-19T07:50:14;17.38;;;7.88;;
68212;SDS011;55035;47.792;8.724;2022-10-19T07:52:41;20.67;;;7.95;;
68212;SDS011;55035;47.792;8.724;2022-10-19T07:55:09;21.02;;;9.05;;
68212;SDS011;55035;47.792;8.724;2022-10-19T07:57:38;17.23;;;7.40;;
68212;SDS011;55035;47.792;8.724;2022-10-19T08:00:06;18.65;;;7.85;;
68212;SDS011;55035;47.792;8.724;2022-10-19T08:02:37;19.88;;;8.25;;
68212;SDS011;55035;47.792;8.724;2022-10-19T08:05:06;19.88;;;9.27;;
68212;SDS011;55035;47.792;8.724;2022-10-19T08:07:33;19.33;;;7.97;;
68212;SDS011;55035;47.792;8.724;2022-10-19T08:09:59;18.27;;;8.33;;
68212;SDS011;55035;47.792;8.724;2022-10-19T08:12:26;19.15;;;9.00;;
68212;SDS011;55035;47.792;8.724;2022-10-19T08:14:53;18.08;;;9.02;;
68212;SDS011;55035;47.792;8.724;2022-10-19T08:17:20;18.48;;;9.18;;
68212;SDS011;55035;47.792;8.724;2022-10-19T08:20:14;16.95;;;8.05;;
68212;SDS011;55035;47.792;8.724;2022-10-19T08:22:41;16.77;;;7.07;;
68212;SDS011;55035;47.792;8.724;2022-10-19T08:25:09;15.40;;;7.25;;
68212;SDS011;55035;47.792;8.724;2022-10-19T08:27:36;16.88;;;7.28;;
68212;SDS011;55035;47.792;8.724;2022-10-19T08:30:03;16.90;;;7.57;;
68212;SDS011;55035;47.792;8.724;2022-10-19T08:32:30;19.23;;;7.57;;
68212;SDS011;55035;47.792;8.724;2022-10-19T08:34:57;15.83;;;7.63;;
68212;SDS011;55035;47.792;8.724;2022-10-19T08:37:25;15.38;;;7.57;;
68212;SDS011;55035;47.792;8.724;2022-10-19T08:39:51;15.45;;;7.13;;
68212;SDS011;55035;47.792;8.724;2022-10-19T08:42:48;13.23;;;6.10;;
68212;SDS011;55035;47.792;8.724;2022-10-19T08:45:26;17.00;;;7.47;;
68212;SDS011;55035;47.792;8.724;2022-10-19T08:48:24;16.70;;;7.63;;
68212;SDS011;55035;47.792;8.724;2022-10-19T08:50:51;14.73;;;7.25;;
68212;SDS011;55035;47.792;8.724;2022-10-19T08:53:21;14.63;;;6.57;;
68212;SDS011;55035;47.792;8.724;2022-10-19T08:55:54;14.00;;;6.75;;
68212;SDS011;55035;47.792;8.724;2022-10-19T08:58:28;13.70;;;6.25;;
68212;SDS011;55035;47.792;8.724;2022-10-19T09:00:58;15.30;;;6.13;;
68212;SDS011;55035;47.792;8.724;2022-10-19T09:03:27;14.32;;;6.75;;
68212;SDS011;55035;47.792;8.724;2022-10-19T09:05:58;13.80;;;6.75;;
68212;SDS011;55035;47.792;8.724;2022-10-19T09:08:28;14.73;;;6.68;;
68212;SDS011;55035;47.792;8.724;2022-10-19T09:10:55;14.30;;;6.53;;
68212;SDS011;55035;47.792;8.724;2022-10-19T09:13:27;14.80;;;7.03;;
68212;SDS011;55035;47.792;8.724;2022-10-19T09:15:57;15.65;;;7.10;;
68212;SDS011;55035;47.792;8.724;2022-10-19T09:18:25;16.52;;;6.40;;
68212;SDS011;55035;47.792;8.724;2022-10-19T09:20:54;13.95;;;7.05;;
68212;SDS011;55035;47.792;8.724;2022-10-19T09:23:25;15.88;;;7.30;;
68212;SDS011;55035;47.792;8.724;2022-10-19T09:25:55;12.90;;;6.23;;
68212;SDS011;55035;47.792;8.724;2022-10-19T09:28:27;15.23;;;6.40;;
68212;SDS011;55035;47.792;8.724;2022-10-19T09:30:57;13.93;;;6.68;;
68212;SDS011;55035;47.792;8.724;2022-10-19T09:33:26;15.95;;;7.30;;
68212;SDS011;55035;47.792;8.724;2022-10-19T09:35:54;14.70;;;6.85;;
68212;SDS011;55035;47.792;8.724;2022-10-19T09:38:23;15.07;;;6.90;;
68212;SDS011;55035;47.792;8.724;2022-10-19T09:40:51;15.18;;;7.40;;
68212;SDS011;55035;47.792;8.724;2022-10-19T09:43:19;12.88;;;6.55;;
68212;SDS011;55035;47.792;8.724;2022-10-19T09:45:51;14.52;;;7.20;;
68212;SDS011;55035;47.792;8.724;2022-10-19T09:48:22;13.80;;;6.45;;
68212;SDS011;55035;47.792;8.724;2022-10-19T09:50:55;14.33;;;7.03;;
68212;SDS011;55035;47.792;8.724;2022-10-19T09:53:23;14.23;;;7.15;;
68212;SDS011;55035;47.792;8.724;2022-10-19T09:55:54;14.32;;;7.13;;
68212;SDS011;55035;47.792;8.724;2022-10-19T09:58:28;15.48;;;7.13;;
68212;SDS011;55035;47.792;8.724;2022-10-19T10:00:55;14.90;;;7.00;;
68212;SDS011;55035;47.792;8.724;2022-10-19T10:03:23;13.53;;;7.17;;
68212;SDS011;55035;47.792;8.724;2022-10-19T10:05:51;13.55;;;7.32;;
68212;SDS011;55035;47.792;8.724;2022-10-19T10:08:18;14.30;;;7.07;;
68212;SDS011;55035;47.792;8.724;2022-10-19T10:10:46;14.18;;;6.75;;
68212;SDS011;55035;47.792;8.724;2022-10-19T10:13:15;14.27;;;6.97;;
68212;SDS011;55035;47.792;8.724;2022-10-19T10:15:50;14.10;;;6.80;;
68212;SDS011;55035;47.792;8.724;2022-10-19T10:18:23;14.35;;;7.13;;
68212;SDS011;55035;47.792;8.724;2022-10-19T10:20:57;12.93;;;6.03;;
68212;SDS011;55035;47.792;8.724;2022-10-19T10:23:25;15.13;;;6.13;;
68212;SDS011;55035;47.792;8.724;2022-10-19T10:25:54;15.93;;;7.22;;
68212;SDS011;55035;47.792;8.724;2022-10-19T10:28:21;15.03;;;6.90;;
68212;SDS011;55035;47.792;8.724;2022-10-19T10:30:52;14.85;;;7.20;;
68212;SDS011;55035;47.792;8.724;2022-10-19T10:33:20;14.07;;;7.22;;
68212;SDS011;55035;47.792;8.724;2022-10-19T10:35:53;13.50;;;6.15;;
68212;SDS011;55035;47.792;8.724;2022-10-19T10:38:21;14.23;;;7.10;;
68212;SDS011;55035;47.792;8.724;2022-10-19T10:40:52;13.03;;;6.13;;
68212;SDS011;55035;47.792;8.724;2022-10-19T10:43:20;15.00;;;6.57;;
68212;SDS011;55035;47.792;8.724;2022-10-19T10:45:48;15.48;;;6.68;;
68212;SDS011;55035;47.792;8.724;2022-10-19T10:48:25;13.35;;;6.90;;
68212;SDS011;55035;47.792;8.724;2022-10-19T10:50:55;13.85;;;6.90;;
68212;SDS011;55035;47.792;8.724;2022-10-19T10:53:36;12.47;;;6.43;;
68212;SDS011;55035;47.792;8.724;2022-10-19T10:56:04;12.63;;;6.18;;
68212;SDS011;55035;47.792;8.724;2022-10-19T10:58:35;13.85;;;6.90;;
68212;SDS011;55035;47.792;8.724;2022-10-19T11:01:05;14.07;;;6.80;;
68212;SDS011;55035;47.792;8.724;2022-10-19T11:03:34;15.90;;;6.65;;
68212;SDS011;55035;47.792;8.724;2022-10-19T11:06:02;16.60;;;6.60;;
68212;SDS011;55035;47.792;8.724;2022-10-19T11:08:30;13.55;;;7.18;;
68212;SDS011;55035;47.792;8.724;2022-10-19T11:11:44;12.85;;;6.10;;
68212;SDS011;55035;47.792;8.724;2022-10-19T11:14:22;11.82;;;5.05;;
68212;SDS011;55035;47.792;8.724;2022-10-19T11:16:51;11.48;;;5.88;;
68212;SDS011;55035;47.792;8.724;2022-10-19T11:19:21;12.60;;;6.57;;
68212;SDS011;55035;47.792;8.724;2022-10-19T11:21:54;12.95;;;6.18;;
68212;SDS011;55035;47.792;8.724;2022-10-19T11:24:24;12.00;;;6.20;;
68212;SDS011;55035;47.792;8.724;2022-10-19T11:26:55;12.63;;;6.38;;
68212;SDS011;55035;47.792;8.724;2022-10-19T11:29:26;12.25;;;5.78;;
68212;SDS011;55035;47.792;8.724;2022-10-19T11:31:56;12.57;;;6.30;;
68212;SDS011;55035;47.792;8.724;2022-10-19T11:34:32;14.38;;;6.70;;
68212;SDS011;55035;47.792;8.724;2022-10-19T11:37:01;12.70;;;5.97;;
68212;SDS011;55035;47.792;8.724;2022-10-19T11:39:34;11.77;;;6.00;;
68212;SDS011;55035;47.792;8.724;2022-10-19T11:42:06;11.52;;;5.70;;
68212;SDS011;55035;47.792;8.724;2022-10-19T11:44:37;13.10;;;6.00;;
68212;SDS011;55035;47.792;8.724;2022-10-19T11:47:12;12.38;;;5.97;;
68212;SDS011;55035;47.792;8.724;2022-10-19T11:49:51;11.73;;;5.72;;
68212;SDS011;55035;47.792;8.724;2022-10-19T11:52:29;12.00;;;5.43;;
68212;SDS011;55035;47.792;8.724;2022-10-19T11:55:02;12.68;;;6.10;;
68212;SDS011;55035;47.792;8.724;2022-10-19T11:57:31;11.57;;;5.13;;
68212;SDS011;55035;47.792;8.724;2022-10-19T12:00:04;11.48;;;5.70;;
68212;SDS011;55035;47.792;8.724;2022-10-19T12:05:24;10.32;;;6.05;;
68212;SDS011;55035;47.792;8.724;2022-10-19T12:07:58;11.90;;;5.22;;
68212;SDS011;55035;47.792;8.724;2022-10-19T12:10:27;9.70;;;4.83;;
68212;SDS011;55035;47.792;8.724;2022-10-19T12:13:00;10.65;;;5.38;;
68212;SDS011;55035;47.792;8.724;2022-10-19T12:15:29;10.93;;;5.30;;
68212;SDS011;55035;47.792;8.724;2022-10-19T12:17:59;9.88;;;5.38;;
68212;SDS011;55035;47.792;8.724;2022-10-19T12:20:29;11.35;;;5.50;;
68212;SDS011;55035;47.792;8.724;2022-10-19T12:22:58;10.30;;;5.23;;
68212;SDS011;55035;47.792;8.724;2022-10-19T12:25:27;10.63;;;5.03;;
68212;SDS011;55035;47.792;8.724;2022-10-19T12:27:54;10.02;;;5.25;;
68212;SDS011;55035;47.792;8.724;2022-10-19T12:30:22;11.57;;;5.40;;
68212;SDS011;55035;47.792;8.724;2022-10-19T12:33:01;9.10;;;4.57;;
68212;SDS011;55035;47.792;8.724;2022-10-19T12:35:46;9.80;;;4.90;;
68212;SDS011;55035;47.792;8.724;2022-10-19T12:38:15;10.40;;;4.85;;
68212;SDS011;55035;47.792;8.724;2022-10-19T12:40:47;9.98;;;4.53;;
68212;SDS011;55035;47.792;8.724;2022-10-19T12:43:18;9.32;;;4.68;;
68212;SDS011;55035;47.792;8.724;2022-10-19T12:48:44;11.00;;;4.47;;
68212;SDS011;55035;47.792;8.724;2022-10-19T12:51:16;10.05;;;4.75;;
68212;SDS011;55035;47.792;8.724;2022-10-19T12:53:45;10.25;;;4.47;;
68212;SDS011;55035;47.792;8.724;2022-10-19T12:56:17;8.02;;;4.00;;
68212;SDS011;55035;47.792;8.724;2022-10-19T12:58:48;9.35;;;4.22;;
68212;SDS011;55035;47.792;8.724;2022-10-19T13:01:22;9.17;;;4.40;;
68212;SDS011;55035;47.792;8.724;2022-10-19T13:03:51;11.15;;;5.35;;
68212;SDS011;55035;47.792;8.724;2022-10-19T13:06:30;9.32;;;5.18;;
68212;SDS011;55035;47.792;8.724;2022-10-19T13:09:20;10.52;;;4.63;;
68212;SDS011;55035;47.792;8.724;2022-10-19T13:14:42;10.30;;;4.57;;
68212;SDS011;55035;47.792;8.724;2022-10-19T13:17:10;8.95;;;4.90;;
68212;SDS011;55035;47.792;8.724;2022-10-19T13:22:41;10.35;;;4.70;;
68212;SDS011;55035;47.792;8.724;2022-10-19T13:25:19;9.02;;;4.80;;
68212;SDS011;55035;47.792;8.724;2022-10-19T13:27:48;11.27;;;4.63;;
68212;SDS011;55035;47.792;8.724;2022-10-19T13:35:42;9.73;;;4.88;;
68212;SDS011;55035;47.792;8.724;2022-10-19T13:38:20;8.35;;;4.05;;
68212;SDS011;55035;47.792;8.724;2022-10-19T13:43:39;10.48;;;3.85;;
68212;SDS011;55035;47.792;8.724;2022-10-19T13:46:08;9.73;;;4.18;;
68212;SDS011;55035;47.792;8.724;2022-10-19T13:48:45;9.35;;;4.10;;
68212;SDS011;55035;47.792;8.724;2022-10-19T13:51:17;12.77;;;4.68;;
68212;SDS011;55035;47.792;8.724;2022-10-19T13:53:50;10.57;;;4.80;;
68212;SDS011;55035;47.792;8.724;2022-10-19T13:56:31;10.43;;;4.20;;
68212;SDS011;55035;47.792;8.724;2022-10-19T13:59:04;9.82;;;4.63;;
68212;SDS011;55035;47.792;8.724;2022-10-19T14:01:42;9.30;;;4.15;;
68212;SDS011;55035;47.792;8.724;2022-10-19T14:07:09;10.07;;;4.87;;
68212;SDS011;55035;47.792;8.724;2022-10-19T14:09:53;10.80;;;4.47;;
68212;SDS011;55035;47.792;8.724;2022-10-19T14:12:24;9.63;;;4.22;;
68212;SDS011;55035;47.792;8.724;2022-10-19T14:14:58;9.70;;;4.60;;
68212;SDS011;55035;47.792;8.724;2022-10-19T14:17:26;9.45;;;4.60;;
68212;SDS011;55035;47.792;8.724;2022-10-19T14:19:58;10.30;;;4.57;;
68212;SDS011;55035;47.792;8.724;2022-10-19T14:22:26;9.98;;;4.65;;
68212;SDS011;55035;47.792;8.724;2022-10-19T14:25:03;9.40;;;4.72;;
68212;SDS011;55035;47.792;8.724;2022-10-19T14:27:31;11.80;;;5.40;;
68212;SDS011;55035;47.792;8.724;2022-10-19T14:29:58;11.45;;;5.28;;
68212;SDS011;55035;47.792;8.724;2022-10-19T14:32:26;10.77;;;4.60;;
68212;SDS011;55035;47.792;8.724;2022-10-19T14:34:55;11.25;;;4.75;;
68212;SDS011;55035;47.792;8.724;2022-10-19T14:37:23;11.68;;;5.10;;
68212;SDS011;55035;47.792;8.724;2022-10-19T14:39:59;10.30;;;5.25;;
68212;SDS011;55035;47.792;8.724;2022-10-19T14:42:35;11.75;;;5.03;;
68212;SDS011;55035;47.792;8.724;2022-10-19T14:45:03;10.73;;;5.50;;
68212;SDS011;55035;47.792;8.724;2022-10-19T14:47:30;9.93;;;4.90;;
68212;SDS011;55035;47.792;8.724;2022-10-19T14:49:56;11.15;;;5.50;;
68212;SDS011;55035;47.792;8.724;2022-10-19T14:55:39;12.88;;;5.38;;
68212;SDS011;55035;47.792;8.724;2022-10-19T14:58:09;11.30;;;5.13;;
68212;SDS011;55035;47.792;8.724;2022-10-19T15:00:37;9.85;;;4.90;;
68212;SDS011;55035;47.792;8.724;2022-10-19T15:03:04;11.30;;;4.45;;
68212;SDS011;55035;47.792;8.724;2022-10-19T15:05:32;10.20;;;4.47;;
68212;SDS011;55035;47.792;8.724;2022-10-19T15:08:04;9.95;;;4.47;;
68212;SDS011;55035;47.792;8.724;2022-10-19T15:10:35;10.93;;;4.60;;
68212;SDS011;55035;47.792;8.724;2022-10-19T15:13:05;9.23;;;4.82;;
68212;SDS011;55035;47.792;8.724;2022-10-19T15:15:34;10.60;;;4.90;;